sensor_id;sensor_type;location;lat;lon;timestamp;temperature;humidity
52919;DHT22;38793;52.690;6.812;2022-08-04T00:00:22;20.50;99.90
52919;DHT22;38793;52.690;6.812;2022-08-04T00:03:18;20.50;99.90
52919;DHT22;38793;52.690;6.812;2022-08-04T00:06:01;20.40;99.90
52919;DHT22;38793;52.690;6.812;2022-08-04T00:08:40;20.40;99.90
52919;DHT22;38793;52.690;6.812;2022-08-04T00:11:10;20.40;99.90
52919;DHT22;38793;52.690;6.812;2022-08-04T00:13:42;20.40;99.90
52919;DHT22;38793;52.690;6.812;2022-08-04T00:16:11;20.40;99.90
52919;DHT22;38793;52.690;6.812;2022-08-04T00:18:45;20.40;99.90
52919;DHT22;38793;52.690;6.812;2022-08-04T00:21:15;20.40;99.90
52919;DHT22;38793;52.690;6.812;2022-08-04T00:23:44;20.40;99.90
52919;DHT22;38793;52.690;6.812;2022-08-04T00:26:10;20.50;99.90
52919;DHT22;38793;52.690;6.812;2022-08-04T00:28:36;20.50;99.90
52919;DHT22;38793;52.690;6.812;2022-08-04T00:31:09;20.40;99.90
52919;DHT22;38793;52.690;6.812;2022-08-04T00:33:36;20.40;99.90
52919;DHT22;38793;52.690;6.812;2022-08-04T00:36:02;20.30;99.90
52919;DHT22;38793;52.690;6.812;2022-08-04T00:38:29;20.30;99.90
52919;DHT22;38793;52.690;6.812;2022-08-04T00:41:30;20.30;99.90
52919;DHT22;38793;52.690;6.812;2022-08-04T00:44:20;20.20;99.90
52919;DHT22;38793;52.690;6.812;2022-08-04T00:47:03;20.30;99.90
52919;DHT22;38793;52.690;6.812;2022-08-04T00:52:22;20.20;99.90
52919;DHT22;38793;52.690;6.812;2022-08-04T01:00:11;20.20;99.90
52919;DHT22;38793;52.690;6.812;2022-08-04T01:11:12;20.00;99.90
52919;DHT22;38793;52.690;6.812;2022-08-04T01:13:55;19.90;99.90
52919;DHT22;38793;52.690;6.812;2022-08-04T01:16:25;19.80;99.90
52919;DHT22;38793;52.690;6.812;2022-08-04T01:19:04;19.70;99.90
52919;DHT22;38793;52.690;6.812;2022-08-04T01:24:57;19.60;99.90
52919;DHT22;38793;52.690;6.812;2022-08-04T01:30:21;19.40;99.90
52919;DHT22;38793;52.690;6.812;2022-08-04T01:32:51;19.30;99.90
52919;DHT22;38793;52.690;6.812;2022-08-04T01:35:28;19.40;99.90
52919;DHT22;38793;52.690;6.812;2022-08-04T01:38:17;19.40;99.90
52919;DHT22;38793;52.690;6.812;2022-08-04T01:40:44;19.30;99.90
52919;DHT22;38793;52.690;6.812;2022-08-04T01:43:13;19.40;99.90
52919;DHT22;38793;52.690;6.812;2022-08-04T01:45:40;19.40;99.90
52919;DHT22;38793;52.690;6.812;2022-08-04T01:48:06;19.40;99.90
52919;DHT22;38793;52.690;6.812;2022-08-04T01:50:34;19.40;99.90
52919;DHT22;38793;52.690;6.812;2022-08-04T01:53:01;19.30;99.90
52919;DHT22;38793;52.690;6.812;2022-08-04T01:55:28;19.20;99.90
52919;DHT22;38793;52.690;6.812;2022-08-04T01:57:58;19.20;99.90
52919;DHT22;38793;52.690;6.812;2022-08-04T02:00:27;19.30;99.90
52919;DHT22;38793;52.690;6.812;2022-08-04T02:02:54;19.30;99.90
52919;DHT22;38793;52.690;6.812;2022-08-04T02:05:23;19.30;99.90
52919;DHT22;38793;52.690;6.812;2022-08-04T02:08:08;19.30;99.90
52919;DHT22;38793;52.690;6.812;2022-08-04T02:13:50;19.30;99.90
52919;DHT22;38793;52.690;6.812;2022-08-04T02:16:28;19.30;99.90
52919;DHT22;38793;52.690;6.812;2022-08-04T02:21:42;19.30;99.90
52919;DHT22;38793;52.690;6.812;2022-08-04T02:24:13;19.40;99.90
52919;DHT22;38793;52.690;6.812;2022-08-04T02:26:41;19.40;99.90
52919;DHT22;38793;52.690;6.812;2022-08-04T02:29:20;19.30;99.90
52919;DHT22;38793;52.690;6.812;2022-08-04T02:32:05;19.30;99.90
52919;DHT22;38793;52.690;6.812;2022-08-04T02:37:03;19.30;99.90
52919;DHT22;38793;52.690;6.812;2022-08-04T02:39:33;19.30;99.90
52919;DHT22;38793;52.690;6.812;2022-08-04T02:42:01;19.20;99.90
52919;DHT22;38793;52.690;6.812;2022-08-04T02:44:27;19.30;99.90
52919;DHT22;38793;52.690;6.812;2022-08-04T02:46:54;19.20;99.90
52919;DHT22;38793;52.690;6.812;2022-08-04T02:49:21;19.20;99.90
52919;DHT22;38793;52.690;6.812;2022-08-04T02:51:52;19.20;99.90
52919;DHT22;38793;52.690;6.812;2022-08-04T02:54:24;19.20;99.90
52919;DHT22;38793;52.690;6.812;2022-08-04T02:56:52;19.20;99.90
52919;DHT22;38793;52.690;6.812;2022-08-04T02:59:24;19.10;99.90
52919;DHT22;38793;52.690;6.812;2022-08-04T03:01:54;19.10;99.90
52919;DHT22;38793;52.690;6.812;2022-08-04T03:04:47;19.10;99.90
52919;DHT22;38793;52.690;6.812;2022-08-04T03:07:57;19.00;99.90
52919;DHT22;38793;52.690;6.812;2022-08-04T03:11:20;19.00;99.90
52919;DHT22;38793;52.690;6.812;2022-08-04T03:13:49;19.00;99.90
52919;DHT22;38793;52.690;6.812;2022-08-04T03:28:22;19.00;99.90
52919;DHT22;38793;52.690;6.812;2022-08-04T03:33:59;19.00;99.90
52919;DHT22;38793;52.690;6.812;2022-08-04T03:36:47;19.10;99.90
52919;DHT22;38793;52.690;6.812;2022-08-04T03:39:26;19.10;99.90
52919;DHT22;38793;52.690;6.812;2022-08-04T03:51:22;19.20;99.90
52919;DHT22;38793;52.690;6.812;2022-08-04T03:54:36;19.20;99.90
52919;DHT22;38793;52.690;6.812;2022-08-04T03:59:39;19.20;99.90
52919;DHT22;38793;52.690;6.812;2022-08-04T04:05:02;19.10;99.90
52919;DHT22;38793;52.690;6.812;2022-08-04T04:07:49;19.10;99.90
52919;DHT22;38793;52.690;6.812;2022-08-04T04:10:42;19.10;99.90
52919;DHT22;38793;52.690;6.812;2022-08-04T04:22:05;19.00;99.90
52919;DHT22;38793;52.690;6.812;2022-08-04T04:24:45;19.00;99.90
52919;DHT22;38793;52.690;6.812;2022-08-04T04:38:36;18.90;99.90
52919;DHT22;38793;52.690;6.812;2022-08-04T04:41:35;19.00;99.90
52919;DHT22;38793;52.690;6.812;2022-08-04T04:44:45;19.00;99.90
52919;DHT22;38793;52.690;6.812;2022-08-04T04:53:17;19.10;99.90
52919;DHT22;38793;52.690;6.812;2022-08-04T04:55:52;19.20;99.90
52919;DHT22;38793;52.690;6.812;2022-08-04T04:58:21;19.20;99.90
52919;DHT22;38793;52.690;6.812;2022-08-04T05:09:21;19.50;99.90
52919;DHT22;38793;52.690;6.812;2022-08-04T05:12:19;19.50;99.90
52919;DHT22;38793;52.690;6.812;2022-08-04T05:14:49;19.60;99.90
52919;DHT22;38793;52.690;6.812;2022-08-04T05:17:37;19.70;99.90
52919;DHT22;38793;52.690;6.812;2022-08-04T05:20:26;19.80;99.90
52919;DHT22;38793;52.690;6.812;2022-08-04T05:23:10;19.80;99.90
52919;DHT22;38793;52.690;6.812;2022-08-04T05:25:45;19.90;99.90
52919;DHT22;38793;52.690;6.812;2022-08-04T05:28:14;20.00;99.90
52919;DHT22;38793;52.690;6.812;2022-08-04T05:30:42;20.10;99.90
52919;DHT22;38793;52.690;6.812;2022-08-04T05:33:15;20.10;99.90
52919;DHT22;38793;52.690;6.812;2022-08-04T05:35:45;20.30;99.90
52919;DHT22;38793;52.690;6.812;2022-08-04T05:38:16;20.40;99.90
52919;DHT22;38793;52.690;6.812;2022-08-04T05:40:43;20.40;99.90
52919;DHT22;38793;52.690;6.812;2022-08-04T05:43:09;20.50;99.90
52919;DHT22;38793;52.690;6.812;2022-08-04T05:45:37;20.60;99.90
52919;DHT22;38793;52.690;6.812;2022-08-04T05:48:02;20.70;99.90
52919;DHT22;38793;52.690;6.812;2022-08-04T05:50:31;20.70;99.90
52919;DHT22;38793;52.690;6.812;2022-08-04T05:52:58;20.80;99.90
52919;DHT22;38793;52.690;6.812;2022-08-04T05:55:26;20.90;99.90
52919;DHT22;38793;52.690;6.812;2022-08-04T05:57:52;21.00;99.90
52919;DHT22;38793;52.690;6.812;2022-08-04T06:00:18;21.10;99.90
52919;DHT22;38793;52.690;6.812;2022-08-04T06:02:45;21.20;99.90
52919;DHT22;38793;52.690;6.812;2022-08-04T06:05:13;21.30;99.90
52919;DHT22;38793;52.690;6.812;2022-08-04T06:07:40;21.50;99.90
52919;DHT22;38793;52.690;6.812;2022-08-04T06:10:06;21.60;99.90
52919;DHT22;38793;52.690;6.812;2022-08-04T06:13:00;21.70;99.90
52919;DHT22;38793;52.690;6.812;2022-08-04T06:15:25;21.80;99.90
52919;DHT22;38793;52.690;6.812;2022-08-04T06:17:55;21.90;99.90
52919;DHT22;38793;52.690;6.812;2022-08-04T06:20:25;21.90;99.90
52919;DHT22;38793;52.690;6.812;2022-08-04T06:23:00;22.00;99.90
52919;DHT22;38793;52.690;6.812;2022-08-04T06:25:37;22.00;99.90
52919;DHT22;38793;52.690;6.812;2022-08-04T06:28:07;22.10;99.90
52919;DHT22;38793;52.690;6.812;2022-08-04T06:30:34;22.10;99.90
52919;DHT22;38793;52.690;6.812;2022-08-04T06:33:01;22.20;99.90
52919;DHT22;38793;52.690;6.812;2022-08-04T06:35:38;22.20;99.90
52919;DHT22;38793;52.690;6.812;2022-08-04T06:38:05;22.30;99.90
52919;DHT22;38793;52.690;6.812;2022-08-04T06:40:33;22.30;99.90
52919;DHT22;38793;52.690;6.812;2022-08-04T06:43:01;22.40;99.90
52919;DHT22;38793;52.690;6.812;2022-08-04T06:45:27;22.40;99.90
52919;DHT22;38793;52.690;6.812;2022-08-04T06:47:53;22.50;99.90
52919;DHT22;38793;52.690;6.812;2022-08-04T06:50:20;22.60;99.90
52919;DHT22;38793;52.690;6.812;2022-08-04T06:52:46;22.70;99.90
52919;DHT22;38793;52.690;6.812;2022-08-04T06:55:12;22.80;99.90
52919;DHT22;38793;52.690;6.812;2022-08-04T06:57:39;22.90;99.90
52919;DHT22;38793;52.690;6.812;2022-08-04T07:00:08;22.90;99.90
52919;DHT22;38793;52.690;6.812;2022-08-04T07:02:45;23.00;99.90
52919;DHT22;38793;52.690;6.812;2022-08-04T07:05:13;23.10;99.90
52919;DHT22;38793;52.690;6.812;2022-08-04T07:07:39;23.20;99.90
52919;DHT22;38793;52.690;6.812;2022-08-04T07:10:06;23.30;99.90
52919;DHT22;38793;52.690;6.812;2022-08-04T07:12:32;23.30;99.90
52919;DHT22;38793;52.690;6.812;2022-08-04T07:14:59;23.40;99.90
52919;DHT22;38793;52.690;6.812;2022-08-04T07:17:25;23.40;99.90
52919;DHT22;38793;52.690;6.812;2022-08-04T07:19:50;23.50;99.90
52919;DHT22;38793;52.690;6.812;2022-08-04T07:22:18;23.60;99.90
52919;DHT22;38793;52.690;6.812;2022-08-04T07:24:44;23.60;99.90
52919;DHT22;38793;52.690;6.812;2022-08-04T07:27:10;23.60;99.90
52919;DHT22;38793;52.690;6.812;2022-08-04T07:29:36;23.60;99.90
52919;DHT22;38793;52.690;6.812;2022-08-04T07:32:03;23.70;99.90
52919;DHT22;38793;52.690;6.812;2022-08-04T07:34:29;23.70;99.90
52919;DHT22;38793;52.690;6.812;2022-08-04T07:36:58;23.80;99.90
52919;DHT22;38793;52.690;6.812;2022-08-04T07:39:28;23.90;99.90
52919;DHT22;38793;52.690;6.812;2022-08-04T07:41:57;23.90;99.90
52919;DHT22;38793;52.690;6.812;2022-08-04T07:44:23;24.00;99.90
52919;DHT22;38793;52.690;6.812;2022-08-04T07:46:49;24.10;99.90
52919;DHT22;38793;52.690;6.812;2022-08-04T07:49:15;24.20;99.90
52919;DHT22;38793;52.690;6.812;2022-08-04T07:51:41;24.20;99.90
52919;DHT22;38793;52.690;6.812;2022-08-04T07:54:07;24.20;99.90
52919;DHT22;38793;52.690;6.812;2022-08-04T07:56:36;24.30;99.90
52919;DHT22;38793;52.690;6.812;2022-08-04T07:59:03;24.40;99.90
52919;DHT22;38793;52.690;6.812;2022-08-04T08:01:29;24.40;99.90
52919;DHT22;38793;52.690;6.812;2022-08-04T08:03:57;24.40;99.90
52919;DHT22;38793;52.690;6.812;2022-08-04T08:06:23;24.50;99.90
52919;DHT22;38793;52.690;6.812;2022-08-04T08:08:49;24.60;99.90
52919;DHT22;38793;52.690;6.812;2022-08-04T08:11:15;24.60;99.90
52919;DHT22;38793;52.690;6.812;2022-08-04T08:13:41;24.70;99.90
52919;DHT22;38793;52.690;6.812;2022-08-04T08:16:11;24.70;99.90
52919;DHT22;38793;52.690;6.812;2022-08-04T08:18:37;24.70;99.90
52919;DHT22;38793;52.690;6.812;2022-08-04T08:21:03;24.70;99.90
52919;DHT22;38793;52.690;6.812;2022-08-04T08:23:30;24.70;99.90
52919;DHT22;38793;52.690;6.812;2022-08-04T08:25:57;24.80;99.90
52919;DHT22;38793;52.690;6.812;2022-08-04T08:28:24;24.80;99.90
52919;DHT22;38793;52.690;6.812;2022-08-04T08:30:50;24.80;99.90
52919;DHT22;38793;52.690;6.812;2022-08-04T08:33:16;24.90;99.90
52919;DHT22;38793;52.690;6.812;2022-08-04T08:38:15;25.00;99.90
52919;DHT22;38793;52.690;6.812;2022-08-04T08:44:21;25.30;99.90
52919;DHT22;38793;52.690;6.812;2022-08-04T08:49:54;25.60;99.90
52919;DHT22;38793;52.690;6.812;2022-08-04T08:52:48;25.80;99.90
52919;DHT22;38793;52.690;6.812;2022-08-04T08:55:36;25.90;99.90
52919;DHT22;38793;52.690;6.812;2022-08-04T09:00:50;26.20;99.90
52919;DHT22;38793;52.690;6.812;2022-08-04T09:11:49;26.70;98.70
52919;DHT22;38793;52.690;6.812;2022-08-04T09:14:27;26.80;98.60
52919;DHT22;38793;52.690;6.812;2022-08-04T09:17:05;27.00;98.70
52919;DHT22;38793;52.690;6.812;2022-08-04T09:19:40;27.10;98.30
52919;DHT22;38793;52.690;6.812;2022-08-04T09:22:31;27.20;98.20
52919;DHT22;38793;52.690;6.812;2022-08-04T09:25:23;27.30;97.70
52919;DHT22;38793;52.690;6.812;2022-08-04T09:28:02;27.40;97.50
52919;DHT22;38793;52.690;6.812;2022-08-04T09:31:02;27.50;96.90
52919;DHT22;38793;52.690;6.812;2022-08-04T09:33:41;27.60;97.50
52919;DHT22;38793;52.690;6.812;2022-08-04T09:36:27;27.70;97.40
52919;DHT22;38793;52.690;6.812;2022-08-04T09:44:25;27.90;96.80
52919;DHT22;38793;52.690;6.812;2022-08-04T09:47:19;28.10;96.90
52919;DHT22;38793;52.690;6.812;2022-08-04T09:52:40;28.20;96.20
52919;DHT22;38793;52.690;6.812;2022-08-04T10:01:10;28.30;96.60
52919;DHT22;38793;52.690;6.812;2022-08-04T10:03:42;28.40;96.00
52919;DHT22;38793;52.690;6.812;2022-08-04T10:09:33;28.50;95.30
52919;DHT22;38793;52.690;6.812;2022-08-04T10:14:52;28.40;95.70
52919;DHT22;38793;52.690;6.812;2022-08-04T10:19:55;28.60;95.90
52919;DHT22;38793;52.690;6.812;2022-08-04T10:22:32;28.70;95.40
52919;DHT22;38793;52.690;6.812;2022-08-04T10:27:54;28.90;95.10
52919;DHT22;38793;52.690;6.812;2022-08-04T10:30:22;29.00;95.00
52919;DHT22;38793;52.690;6.812;2022-08-04T10:35:22;29.00;94.50
52919;DHT22;38793;52.690;6.812;2022-08-04T10:40:38;28.90;94.50
52919;DHT22;38793;52.690;6.812;2022-08-04T10:49:08;29.20;96.00
52919;DHT22;38793;52.690;6.812;2022-08-04T10:54:08;29.60;94.60
52919;DHT22;38793;52.690;6.812;2022-08-04T10:56:39;29.70;94.90
52919;DHT22;38793;52.690;6.812;2022-08-04T10:59:16;29.70;94.90
52919;DHT22;38793;52.690;6.812;2022-08-04T11:01:47;29.80;95.30
52919;DHT22;38793;52.690;6.812;2022-08-04T11:04:39;29.80;95.10
52919;DHT22;38793;52.690;6.812;2022-08-04T11:07:07;29.80;95.10
52919;DHT22;38793;52.690;6.812;2022-08-04T11:09:33;29.90;95.30
52919;DHT22;38793;52.690;6.812;2022-08-04T11:12:11;29.90;95.00
52919;DHT22;38793;52.690;6.812;2022-08-04T11:14:57;29.90;94.50
52919;DHT22;38793;52.690;6.812;2022-08-04T11:17:49;30.00;94.50
52919;DHT22;38793;52.690;6.812;2022-08-04T11:20:29;29.90;94.00
52919;DHT22;38793;52.690;6.812;2022-08-04T11:23:09;29.80;94.00
52919;DHT22;38793;52.690;6.812;2022-08-04T11:25:51;29.70;93.90
52919;DHT22;38793;52.690;6.812;2022-08-04T11:31:04;29.40;93.10
52919;DHT22;38793;52.690;6.812;2022-08-04T11:33:46;29.20;93.60
52919;DHT22;38793;52.690;6.812;2022-08-04T11:36:31;29.10;93.90
52919;DHT22;38793;52.690;6.812;2022-08-04T11:41:50;29.10;93.00
52919;DHT22;38793;52.690;6.812;2022-08-04T11:44:31;29.00;93.50
52919;DHT22;38793;52.690;6.812;2022-08-04T11:47:07;28.90;93.10
52919;DHT22;38793;52.690;6.812;2022-08-04T11:49:40;28.80;92.90
52919;DHT22;38793;52.690;6.812;2022-08-04T11:52:10;28.60;93.20
52919;DHT22;38793;52.690;6.812;2022-08-04T11:54:37;28.40;93.50
52919;DHT22;38793;52.690;6.812;2022-08-04T11:57:04;28.30;93.60
52919;DHT22;38793;52.690;6.812;2022-08-04T11:59:32;28.10;93.60
52919;DHT22;38793;52.690;6.812;2022-08-04T12:04:59;27.80;94.10
52919;DHT22;38793;52.690;6.812;2022-08-04T12:07:54;27.70;94.30
52919;DHT22;38793;52.690;6.812;2022-08-04T12:10:50;27.60;94.20
52919;DHT22;38793;52.690;6.812;2022-08-04T12:13:34;27.50;94.40
52919;DHT22;38793;52.690;6.812;2022-08-04T12:16:16;27.40;94.50
52919;DHT22;38793;52.690;6.812;2022-08-04T12:18:50;27.30;94.80
52919;DHT22;38793;52.690;6.812;2022-08-04T12:23:49;27.10;94.90
52919;DHT22;38793;52.690;6.812;2022-08-04T12:26:26;27.00;95.00
52919;DHT22;38793;52.690;6.812;2022-08-04T12:28:57;26.90;95.20
52919;DHT22;38793;52.690;6.812;2022-08-04T12:31:46;26.80;95.40
52919;DHT22;38793;52.690;6.812;2022-08-04T12:34:34;26.70;95.30
52919;DHT22;38793;52.690;6.812;2022-08-04T12:37:25;26.50;95.30
52919;DHT22;38793;52.690;6.812;2022-08-04T12:39:53;26.40;95.40
52919;DHT22;38793;52.690;6.812;2022-08-04T12:45:07;26.20;95.90
52919;DHT22;38793;52.690;6.812;2022-08-04T12:47:35;26.10;96.10
52919;DHT22;38793;52.690;6.812;2022-08-04T12:50:03;26.10;96.70
52919;DHT22;38793;52.690;6.812;2022-08-04T12:52:40;26.00;97.40
52919;DHT22;38793;52.690;6.812;2022-08-04T12:55:06;26.00;98.20
52919;DHT22;38793;52.690;6.812;2022-08-04T12:57:33;25.90;98.70
52919;DHT22;38793;52.690;6.812;2022-08-04T13:00:00;25.80;99.40
52919;DHT22;38793;52.690;6.812;2022-08-04T13:02:30;25.80;99.90
52919;DHT22;38793;52.690;6.812;2022-08-04T13:04:59;25.70;99.90
52919;DHT22;38793;52.690;6.812;2022-08-04T13:07:27;25.70;99.90
52919;DHT22;38793;52.690;6.812;2022-08-04T13:10:02;25.70;99.90
52919;DHT22;38793;52.690;6.812;2022-08-04T13:12:30;25.70;99.90
52919;DHT22;38793;52.690;6.812;2022-08-04T13:15:05;25.60;99.90
52919;DHT22;38793;52.690;6.812;2022-08-04T13:20:47;25.70;99.90
52919;DHT22;38793;52.690;6.812;2022-08-04T13:23:14;25.70;99.90
52919;DHT22;38793;52.690;6.812;2022-08-04T13:25:43;25.70;99.90
52919;DHT22;38793;52.690;6.812;2022-08-04T13:28:15;25.80;99.90
52919;DHT22;38793;52.690;6.812;2022-08-04T13:30:44;25.80;99.90
52919;DHT22;38793;52.690;6.812;2022-08-04T13:33:11;25.80;99.90
52919;DHT22;38793;52.690;6.812;2022-08-04T13:35:44;25.90;99.90
52919;DHT22;38793;52.690;6.812;2022-08-04T13:38:12;26.00;99.90
52919;DHT22;38793;52.690;6.812;2022-08-04T13:40:40;26.10;99.90
52919;DHT22;38793;52.690;6.812;2022-08-04T13:43:08;26.30;99.90
52919;DHT22;38793;52.690;6.812;2022-08-04T13:45:36;26.40;99.90
52919;DHT22;38793;52.690;6.812;2022-08-04T13:48:03;26.60;99.80
52919;DHT22;38793;52.690;6.812;2022-08-04T13:50:31;26.60;99.30
52919;DHT22;38793;52.690;6.812;2022-08-04T13:53:00;26.80;99.00
52919;DHT22;38793;52.690;6.812;2022-08-04T13:55:32;27.00;98.90
52919;DHT22;38793;52.690;6.812;2022-08-04T13:58:03;27.10;98.80
52919;DHT22;38793;52.690;6.812;2022-08-04T14:01:13;27.10;98.20
52919;DHT22;38793;52.690;6.812;2022-08-04T14:04:28;27.30;98.40
52919;DHT22;38793;52.690;6.812;2022-08-04T14:06:31;27.30;97.80
52919;DHT22;38793;52.690;6.812;2022-08-04T14:09:11;27.40;97.80
52919;DHT22;38793;52.690;6.812;2022-08-04T14:14:21;27.40;97.90
52919;DHT22;38793;52.690;6.812;2022-08-04T14:25:12;27.60;96.90
52919;DHT22;38793;52.690;6.812;2022-08-04T14:30:28;27.70;96.30
52919;DHT22;38793;52.690;6.812;2022-08-04T14:33:05;27.80;96.40
52919;DHT22;38793;52.690;6.812;2022-08-04T14:35:32;27.90;96.30
52919;DHT22;38793;52.690;6.812;2022-08-04T14:38:01;28.00;96.00
52919;DHT22;38793;52.690;6.812;2022-08-04T14:40:29;28.10;95.90
52919;DHT22;38793;52.690;6.812;2022-08-04T14:42:55;28.20;95.90
52919;DHT22;38793;52.690;6.812;2022-08-04T14:45:32;28.20;95.30
52919;DHT22;38793;52.690;6.812;2022-08-04T14:47:58;28.10;95.10
52919;DHT22;38793;52.690;6.812;2022-08-04T14:50:37;28.20;94.80
52919;DHT22;38793;52.690;6.812;2022-08-04T14:53:07;28.20;94.40
52919;DHT22;38793;52.690;6.812;2022-08-04T14:55:33;28.20;94.70
52919;DHT22;38793;52.690;6.812;2022-08-04T14:57:58;28.20;94.30
52919;DHT22;38793;52.690;6.812;2022-08-04T15:00:29;28.20;93.80
52919;DHT22;38793;52.690;6.812;2022-08-04T15:03:02;28.20;93.60
52919;DHT22;38793;52.690;6.812;2022-08-04T15:05:29;28.10;93.90
52919;DHT22;38793;52.690;6.812;2022-08-04T15:07:56;28.10;94.00
52919;DHT22;38793;52.690;6.812;2022-08-04T15:10:21;28.10;93.50
52919;DHT22;38793;52.690;6.812;2022-08-04T15:12:47;28.10;93.80
52919;DHT22;38793;52.690;6.812;2022-08-04T15:15:14;28.10;93.40
52919;DHT22;38793;52.690;6.812;2022-08-04T15:17:39;28.00;93.30
52919;DHT22;38793;52.690;6.812;2022-08-04T15:20:07;28.00;93.30
52919;DHT22;38793;52.690;6.812;2022-08-04T15:22:32;28.00;93.70
52919;DHT22;38793;52.690;6.812;2022-08-04T15:24:59;27.90;93.40
52919;DHT22;38793;52.690;6.812;2022-08-04T15:27:27;27.90;93.40
52919;DHT22;38793;52.690;6.812;2022-08-04T15:29:56;27.90;93.40
52919;DHT22;38793;52.690;6.812;2022-08-04T15:32:24;27.80;93.40
52919;DHT22;38793;52.690;6.812;2022-08-04T15:34:51;27.70;93.50
52919;DHT22;38793;52.690;6.812;2022-08-04T15:37:30;27.70;93.60
52919;DHT22;38793;52.690;6.812;2022-08-04T15:40:17;27.60;93.50
52919;DHT22;38793;52.690;6.812;2022-08-04T15:45:49;27.50;93.50
52919;DHT22;38793;52.690;6.812;2022-08-04T15:53:23;27.40;94.00
52919;DHT22;38793;52.690;6.812;2022-08-04T15:55:49;27.40;94.30
52919;DHT22;38793;52.690;6.812;2022-08-04T15:58:17;27.40;94.10
52919;DHT22;38793;52.690;6.812;2022-08-04T16:03:45;27.40;93.80
52919;DHT22;38793;52.690;6.812;2022-08-04T16:16:47;27.40;92.90
52919;DHT22;38793;52.690;6.812;2022-08-04T16:21:53;27.30;92.90
52919;DHT22;38793;52.690;6.812;2022-08-04T16:24:28;27.30;92.60
52919;DHT22;38793;52.690;6.812;2022-08-04T16:26:56;27.30;92.70
52919;DHT22;38793;52.690;6.812;2022-08-04T16:32:10;27.20;92.60
52919;DHT22;38793;52.690;6.812;2022-08-04T16:35:03;27.10;92.20
52919;DHT22;38793;52.690;6.812;2022-08-04T16:37:37;27.10;92.90
52919;DHT22;38793;52.690;6.812;2022-08-04T16:40:25;27.10;92.90
52919;DHT22;38793;52.690;6.812;2022-08-04T16:43:03;27.10;92.40
52919;DHT22;38793;52.690;6.812;2022-08-04T16:48:10;27.00;92.30
52919;DHT22;38793;52.690;6.812;2022-08-04T16:50:53;27.00;92.40
52919;DHT22;38793;52.690;6.812;2022-08-04T16:53:22;26.90;92.30
52919;DHT22;38793;52.690;6.812;2022-08-04T16:55:51;26.90;92.50
52919;DHT22;38793;52.690;6.812;2022-08-04T16:58:27;26.80;92.40
52919;DHT22;38793;52.690;6.812;2022-08-04T17:00:54;26.70;92.30
52919;DHT22;38793;52.690;6.812;2022-08-04T17:03:20;26.60;92.00
52919;DHT22;38793;52.690;6.812;2022-08-04T17:05:46;26.50;92.20
52919;DHT22;38793;52.690;6.812;2022-08-04T17:08:12;26.40;92.50
52919;DHT22;38793;52.690;6.812;2022-08-04T17:10:44;26.30;92.60
52919;DHT22;38793;52.690;6.812;2022-08-04T17:13:40;26.30;92.80
52919;DHT22;38793;52.690;6.812;2022-08-04T17:16:11;26.20;92.80
52919;DHT22;38793;52.690;6.812;2022-08-04T17:18:41;26.10;92.80
52919;DHT22;38793;52.690;6.812;2022-08-04T17:21:12;26.10;92.70
52919;DHT22;38793;52.690;6.812;2022-08-04T17:23:39;26.00;92.60
52919;DHT22;38793;52.690;6.812;2022-08-04T17:26:09;25.90;92.70
52919;DHT22;38793;52.690;6.812;2022-08-04T17:28:36;25.80;92.80
52919;DHT22;38793;52.690;6.812;2022-08-04T17:31:03;25.80;92.90
52919;DHT22;38793;52.690;6.812;2022-08-04T17:33:30;25.70;93.10
52919;DHT22;38793;52.690;6.812;2022-08-04T17:35:57;25.70;93.00
52919;DHT22;38793;52.690;6.812;2022-08-04T17:38:36;25.60;93.00
52919;DHT22;38793;52.690;6.812;2022-08-04T17:41:04;25.60;93.00
52919;DHT22;38793;52.690;6.812;2022-08-04T17:46:22;25.40;93.30
52919;DHT22;38793;52.690;6.812;2022-08-04T17:51:39;25.40;93.40
52919;DHT22;38793;52.690;6.812;2022-08-04T17:54:06;25.30;93.50
52919;DHT22;38793;52.690;6.812;2022-08-04T17:56:35;25.30;93.60
52919;DHT22;38793;52.690;6.812;2022-08-04T18:01:40;25.30;94.00
52919;DHT22;38793;52.690;6.812;2022-08-04T18:06:51;25.30;94.10
52919;DHT22;38793;52.690;6.812;2022-08-04T18:09:24;25.20;93.70
52919;DHT22;38793;52.690;6.812;2022-08-04T18:11:58;25.20;93.70
52919;DHT22;38793;52.690;6.812;2022-08-04T18:14:24;25.10;93.50
52919;DHT22;38793;52.690;6.812;2022-08-04T18:16:51;25.10;93.70
52919;DHT22;38793;52.690;6.812;2022-08-04T18:19:17;25.10;93.80
52919;DHT22;38793;52.690;6.812;2022-08-04T18:21:43;25.00;94.00
52919;DHT22;38793;52.690;6.812;2022-08-04T18:24:11;24.90;94.10
52919;DHT22;38793;52.690;6.812;2022-08-04T18:26:38;24.80;94.00
52919;DHT22;38793;52.690;6.812;2022-08-04T18:29:04;24.70;94.00
52919;DHT22;38793;52.690;6.812;2022-08-04T18:31:32;24.70;93.70
52919;DHT22;38793;52.690;6.812;2022-08-04T18:33:58;24.60;93.10
52919;DHT22;38793;52.690;6.812;2022-08-04T18:36:24;24.50;93.00
52919;DHT22;38793;52.690;6.812;2022-08-04T18:38:49;24.40;92.70
52919;DHT22;38793;52.690;6.812;2022-08-04T18:41:15;24.30;92.30
52919;DHT22;38793;52.690;6.812;2022-08-04T18:43:40;24.30;92.40
52919;DHT22;38793;52.690;6.812;2022-08-04T18:46:06;24.20;92.40
52919;DHT22;38793;52.690;6.812;2022-08-04T18:48:31;24.10;92.10
52919;DHT22;38793;52.690;6.812;2022-08-04T18:50:57;24.10;92.30
52919;DHT22;38793;52.690;6.812;2022-08-04T18:53:22;24.00;92.40
52919;DHT22;38793;52.690;6.812;2022-08-04T18:55:48;23.90;92.30
52919;DHT22;38793;52.690;6.812;2022-08-04T18:58:13;23.90;92.30
52919;DHT22;38793;52.690;6.812;2022-08-04T19:00:39;23.80;92.30
52919;DHT22;38793;52.690;6.812;2022-08-04T19:03:04;23.80;92.60
52919;DHT22;38793;52.690;6.812;2022-08-04T19:05:30;23.70;92.70
52919;DHT22;38793;52.690;6.812;2022-08-04T19:07:57;23.60;92.90
52919;DHT22;38793;52.690;6.812;2022-08-04T19:10:23;23.60;93.00
52919;DHT22;38793;52.690;6.812;2022-08-04T19:12:48;23.50;93.20
52919;DHT22;38793;52.690;6.812;2022-08-04T19:15:14;23.40;93.40
52919;DHT22;38793;52.690;6.812;2022-08-04T19:17:39;23.40;93.50
52919;DHT22;38793;52.690;6.812;2022-08-04T19:20:05;23.30;93.60
52919;DHT22;38793;52.690;6.812;2022-08-04T19:22:31;23.30;93.80
52919;DHT22;38793;52.690;6.812;2022-08-04T19:24:56;23.30;94.00
52919;DHT22;38793;52.690;6.812;2022-08-04T19:27:22;23.20;94.10
52919;DHT22;38793;52.690;6.812;2022-08-04T19:29:47;23.20;94.30
52919;DHT22;38793;52.690;6.812;2022-08-04T19:32:14;23.10;94.30
52919;DHT22;38793;52.690;6.812;2022-08-04T19:34:39;23.10;94.40
52919;DHT22;38793;52.690;6.812;2022-08-04T19:37:06;23.00;94.40
52919;DHT22;38793;52.690;6.812;2022-08-04T19:39:32;22.90;94.50
52919;DHT22;38793;52.690;6.812;2022-08-04T19:41:58;22.90;94.60
52919;DHT22;38793;52.690;6.812;2022-08-04T19:44:24;22.80;94.60
52919;DHT22;38793;52.690;6.812;2022-08-04T19:46:49;22.70;94.90